sensor_id;sensor_type;location;lat;lon;timestamp;P1;durP1;ratioP1;P2;durP2;ratioP2
56401;SDS011;42299;35.160;26.100;2024-02-16T00:00:17;12.10;;;6.22;;
56401;SDS011;42299;35.160;26.100;2024-02-16T00:05:41;11.95;;;6.75;;
56401;SDS011;42299;35.160;26.100;2024-02-16T00:11:04;8.75;;;5.60;;
56401;SDS011;42299;35.160;26.100;2024-02-16T00:16:26;13.70;;;6.90;;
56401;SDS011;42299;35.160;26.100;2024-02-16T00:21:51;13.48;;;7.00;;
56401;SDS011;42299;35.160;26.100;2024-02-16T00:27:13;30.10;;;16.60;;
56401;SDS011;42299;35.160;26.100;2024-02-16T00:32:36;19.33;;;10.30;;
56401;SDS011;42299;35.160;26.100;2024-02-16T00:38:00;17.55;;;7.65;;
56401;SDS011;42299;35.160;26.100;2024-02-16T00:43:22;14.65;;;6.60;;
56401;SDS011;42299;35.160;26.100;2024-02-16T00:48:44;14.77;;;7.40;;
56401;SDS011;42299;35.160;26.100;2024-02-16T00:54:09;15.73;;;7.18;;
56401;SDS011;42299;35.160;26.100;2024-02-16T00:59:31;11.32;;;5.60;;
56401;SDS011;42299;35.160;26.100;2024-02-16T01:04:54;10.18;;;5.80;;
56401;SDS011;42299;35.160;26.100;2024-02-16T01:10:23;10.25;;;5.95;;
56401;SDS011;42299;35.160;26.100;2024-02-16T01:15:46;10.13;;;6.32;;
56401;SDS011;42299;35.160;26.100;2024-02-16T01:21:08;15.50;;;7.10;;
56401;SDS011;42299;35.160;26.100;2024-02-16T01:26:32;12.60;;;6.55;;
56401;SDS011;42299;35.160;26.100;2024-02-16T01:31:55;26.25;;;13.70;;
56401;SDS011;42299;35.160;26.100;2024-02-16T01:37:18;16.13;;;8.05;;
56401;SDS011;42299;35.160;26.100;2024-02-16T01:42:42;14.00;;;7.90;;
56401;SDS011;42299;35.160;26.100;2024-02-16T01:48:05;11.98;;;6.88;;
56401;SDS011;42299;35.160;26.100;2024-02-16T01:53:28;19.98;;;9.07;;
56401;SDS011;42299;35.160;26.100;2024-02-16T01:58:52;13.45;;;7.20;;
56401;SDS011;42299;35.160;26.100;2024-02-16T02:04:16;15.88;;;8.18;;
56401;SDS011;42299;35.160;26.100;2024-02-16T02:09:40;12.73;;;6.90;;
56401;SDS011;42299;35.160;26.100;2024-02-16T02:15:05;12.15;;;8.30;;
56401;SDS011;42299;35.160;26.100;2024-02-16T02:20:28;13.48;;;8.00;;
56401;SDS011;42299;35.160;26.100;2024-02-16T02:25:52;13.38;;;7.50;;
56401;SDS011;42299;35.160;26.100;2024-02-16T02:31:14;12.07;;;7.82;;
56401;SDS011;42299;35.160;26.100;2024-02-16T02:36:37;19.60;;;8.68;;
56401;SDS011;42299;35.160;26.100;2024-02-16T02:42:01;14.70;;;8.05;;
56401;SDS011;42299;35.160;26.100;2024-02-16T02:47:23;12.55;;;6.65;;
56401;SDS011;42299;35.160;26.100;2024-02-16T02:52:46;8.93;;;4.53;;
56401;SDS011;42299;35.160;26.100;2024-02-16T02:58:10;8.50;;;4.32;;
56401;SDS011;42299;35.160;26.100;2024-02-16T03:03:32;8.27;;;3.63;;
56401;SDS011;42299;35.160;26.100;2024-02-16T03:08:55;6.85;;;3.90;;
56401;SDS011;42299;35.160;26.100;2024-02-16T03:14:19;9.25;;;4.18;;
56401;SDS011;42299;35.160;26.100;2024-02-16T03:19:42;7.72;;;4.30;;
56401;SDS011;42299;35.160;26.100;2024-02-16T03:25:04;8.60;;;3.70;;
56401;SDS011;42299;35.160;26.100;2024-02-16T03:30:29;9.05;;;4.03;;
56401;SDS011;42299;35.160;26.100;2024-02-16T03:35:51;9.25;;;3.78;;
56401;SDS011;42299;35.160;26.100;2024-02-16T03:41:14;11.23;;;6.00;;
56401;SDS011;42299;35.160;26.100;2024-02-16T03:46:38;13.88;;;6.30;;
56401;SDS011;42299;35.160;26.100;2024-02-16T03:52:01;11.88;;;5.13;;
56401;SDS011;42299;35.160;26.100;2024-02-16T03:57:23;19.52;;;6.18;;
56401;SDS011;42299;35.160;26.100;2024-02-16T04:02:48;10.38;;;7.05;;
56401;SDS011;42299;35.160;26.100;2024-02-16T04:08:10;15.32;;;6.88;;
56401;SDS011;42299;35.160;26.100;2024-02-16T04:13:33;13.48;;;7.60;;
56401;SDS011;42299;35.160;26.100;2024-02-16T04:18:57;18.05;;;9.05;;
56401;SDS011;42299;35.160;26.100;2024-02-16T04:24:19;31.00;;;19.50;;
56401;SDS011;42299;35.160;26.100;2024-02-16T04:29:42;14.68;;;9.68;;
56401;SDS011;42299;35.160;26.100;2024-02-16T04:35:07;31.35;;;21.27;;
56401;SDS011;42299;35.160;26.100;2024-02-16T04:40:33;20.83;;;13.93;;
56401;SDS011;42299;35.160;26.100;2024-02-16T04:45:57;18.08;;;10.85;;
56401;SDS011;42299;35.160;26.100;2024-02-16T04:51:21;24.52;;;13.20;;
56401;SDS011;42299;35.160;26.100;2024-02-16T04:56:44;13.35;;;6.80;;
56401;SDS011;42299;35.160;26.100;2024-02-16T05:02:06;15.02;;;5.70;;
56401;SDS011;42299;35.160;26.100;2024-02-16T05:07:31;18.35;;;7.00;;
56401;SDS011;42299;35.160;26.100;2024-02-16T05:12:53;15.95;;;6.90;;
56401;SDS011;42299;35.160;26.100;2024-02-16T05:18:21;18.48;;;11.88;;
56401;SDS011;42299;35.160;26.100;2024-02-16T05:23:45;15.32;;;5.90;;
56401;SDS011;42299;35.160;26.100;2024-02-16T05:29:07;15.05;;;8.98;;
56401;SDS011;42299;35.160;26.100;2024-02-16T05:34:30;10.75;;;5.25;;
56401;SDS011;42299;35.160;26.100;2024-02-16T05:39:59;12.17;;;5.23;;
56401;SDS011;42299;35.160;26.100;2024-02-16T05:45:39;18.63;;;9.90;;
56401;SDS011;42299;35.160;26.100;2024-02-16T05:51:02;16.98;;;5.20;;
56401;SDS011;42299;35.160;26.100;2024-02-16T05:56:27;11.00;;;4.30;;
56401;SDS011;42299;35.160;26.100;2024-02-16T06:01:49;10.43;;;4.63;;
56401;SDS011;42299;35.160;26.100;2024-02-16T06:07:12;16.33;;;6.68;;
56401;SDS011;42299;35.160;26.100;2024-02-16T06:12:37;37.80;;;27.95;;
56401;SDS011;42299;35.160;26.100;2024-02-16T06:18:01;28.27;;;12.85;;
56401;SDS011;42299;35.160;26.100;2024-02-16T06:23:24;60.78;;;24.55;;
56401;SDS011;42299;35.160;26.100;2024-02-16T06:28:48;18.85;;;5.95;;
56401;SDS011;42299;35.160;26.100;2024-02-16T06:34:10;16.90;;;8.18;;
56401;SDS011;42299;35.160;26.100;2024-02-16T06:39:33;22.98;;;6.10;;
56401;SDS011;42299;35.160;26.100;2024-02-16T06:44:57;15.68;;;4.68;;
56401;SDS011;42299;35.160;26.100;2024-02-16T06:50:19;46.03;;;25.88;;
56401;SDS011;42299;35.160;26.100;2024-02-16T06:55:42;25.33;;;8.02;;
56401;SDS011;42299;35.160;26.100;2024-02-16T07:01:06;42.55;;;19.50;;
56401;SDS011;42299;35.160;26.100;2024-02-16T07:06:29;23.35;;;10.25;;
56401;SDS011;42299;35.160;26.100;2024-02-16T07:11:51;33.95;;;12.38;;
56401;SDS011;42299;35.160;26.100;2024-02-16T07:17:16;32.22;;;20.65;;
56401;SDS011;42299;35.160;26.100;2024-02-16T07:22:38;37.38;;;27.60;;
56401;SDS011;42299;35.160;26.100;2024-02-16T07:28:01;44.45;;;34.85;;
56401;SDS011;42299;35.160;26.100;2024-02-16T07:33:25;45.00;;;37.70;;
56401;SDS011;42299;35.160;26.100;2024-02-16T07:38:48;42.55;;;34.95;;
56401;SDS011;42299;35.160;26.100;2024-02-16T07:44:11;34.50;;;28.98;;
56401;SDS011;42299;35.160;26.100;2024-02-16T07:49:37;40.63;;;35.13;;
56401;SDS011;42299;35.160;26.100;2024-02-16T07:54:59;22.67;;;18.05;;
56401;SDS011;42299;35.160;26.100;2024-02-16T08:00:22;21.42;;;16.60;;
56401;SDS011;42299;35.160;26.100;2024-02-16T08:05:46;22.05;;;17.88;;
56401;SDS011;42299;35.160;26.100;2024-02-16T08:11:08;14.70;;;6.78;;
56401;SDS011;42299;35.160;26.100;2024-02-16T08:16:31;8.43;;;5.50;;
56401;SDS011;42299;35.160;26.100;2024-02-16T08:21:56;12.63;;;4.90;;
56401;SDS011;42299;35.160;26.100;2024-02-16T08:27:18;14.80;;;5.78;;
56401;SDS011;42299;35.160;26.100;2024-02-16T08:32:41;15.23;;;9.13;;
56401;SDS011;42299;35.160;26.100;2024-02-16T08:38:06;17.25;;;13.63;;
56401;SDS011;42299;35.160;26.100;2024-02-16T08:43:31;19.30;;;9.60;;
56401;SDS011;42299;35.160;26.100;2024-02-16T08:48:53;15.60;;;10.32;;
56401;SDS011;42299;35.160;26.100;2024-02-16T08:54:17;12.45;;;7.38;;
56401;SDS011;42299;35.160;26.100;2024-02-16T08:59:40;15.73;;;6.50;;
56401;SDS011;42299;35.160;26.100;2024-02-16T09:05:04;18.08;;;6.25;;
56401;SDS011;42299;35.160;26.100;2024-02-16T09:10:31;14.93;;;9.02;;
56401;SDS011;42299;35.160;26.100;2024-02-16T09:15:55;18.33;;;10.68;;
56401;SDS011;42299;35.160;26.100;2024-02-16T09:21:18;11.93;;;5.18;;
56401;SDS011;42299;35.160;26.100;2024-02-16T09:26:42;13.98;;;5.38;;
56401;SDS011;42299;35.160;26.100;2024-02-16T09:32:06;16.05;;;6.50;;
56401;SDS011;42299;35.160;26.100;2024-02-16T09:37:29;12.65;;;5.35;;
56401;SDS011;42299;35.160;26.100;2024-02-16T09:42:52;20.55;;;7.05;;
56401;SDS011;42299;35.160;26.100;2024-02-16T09:48:15;17.20;;;8.15;;
56401;SDS011;42299;35.160;26.100;2024-02-16T09:53:37;18.17;;;10.60;;
56401;SDS011;42299;35.160;26.100;2024-02-16T09:59:01;15.48;;;6.13;;
56401;SDS011;42299;35.160;26.100;2024-02-16T10:04:24;19.20;;;8.63;;
56401;SDS011;42299;35.160;26.100;2024-02-16T10:09:47;16.27;;;6.40;;
56401;SDS011;42299;35.160;26.100;2024-02-16T10:15:11;21.45;;;7.60;;
56401;SDS011;42299;35.160;26.100;2024-02-16T10:20:33;14.40;;;8.50;;
56401;SDS011;42299;35.160;26.100;2024-02-16T10:25:38;10.52;;;4.57;;
56401;SDS011;42299;35.160;26.100;2024-02-16T10:30:43;9.32;;;5.60;;
56401;SDS011;42299;35.160;26.100;2024-02-16T10:35:45;12.10;;;6.72;;
56401;SDS011;42299;35.160;26.100;2024-02-16T10:40:49;8.88;;;5.20;;
56401;SDS011;42299;35.160;26.100;2024-02-16T10:46:15;15.80;;;6.50;;
56401;SDS011;42299;35.160;26.100;2024-02-16T10:51:38;12.13;;;9.95;;
56401;SDS011;42299;35.160;26.100;2024-02-16T10:57:07;13.93;;;5.40;;
56401;SDS011;42299;35.160;26.100;2024-02-16T11:02:32;10.77;;;4.15;;
56401;SDS011;42299;35.160;26.100;2024-02-16T11:07:59;11.00;;;5.05;;
56401;SDS011;42299;35.160;26.100;2024-02-16T11:13:22;9.75;;;5.07;;
56401;SDS011;42299;35.160;26.100;2024-02-16T11:18:48;15.13;;;5.55;;
56401;SDS011;42299;35.160;26.100;2024-02-16T11:24:13;11.52;;;5.15;;
56401;SDS011;42299;35.160;26.100;2024-02-16T11:29:36;14.15;;;5.57;;
56401;SDS011;42299;35.160;26.100;2024-02-16T11:35:06;10.50;;;5.13;;
56401;SDS011;42299;35.160;26.100;2024-02-16T11:40:29;14.73;;;5.20;;
56401;SDS011;42299;35.160;26.100;2024-02-16T11:45:52;9.68;;;5.13;;
56401;SDS011;42299;35.160;26.100;2024-02-16T11:51:16;12.85;;;5.70;;
56401;SDS011;42299;35.160;26.100;2024-02-16T11:56:38;10.48;;;5.55;;
56401;SDS011;42299;35.160;26.100;2024-02-16T12:02:06;10.27;;;4.57;;
56401;SDS011;42299;35.160;26.100;2024-02-16T12:07:30;9.00;;;5.10;;
56401;SDS011;42299;35.160;26.100;2024-02-16T12:12:53;8.68;;;4.75;;
56401;SDS011;42299;35.160;26.100;2024-02-16T12:18:19;10.00;;;4.90;;
56401;SDS011;42299;35.160;26.100;2024-02-16T12:23:43;7.60;;;4.50;;
56401;SDS011;42299;35.160;26.100;2024-02-16T12:29:06;12.35;;;4.93;;
56401;SDS011;42299;35.160;26.100;2024-02-16T12:34:29;8.73;;;5.22;;
56401;SDS011;42299;35.160;26.100;2024-02-16T12:39:53;12.48;;;5.78;;
56401;SDS011;42299;35.160;26.100;2024-02-16T12:45:15;9.57;;;4.45;;
56401;SDS011;42299;35.160;26.100;2024-02-16T12:50:38;10.90;;;4.72;;
56401;SDS011;42299;35.160;26.100;2024-02-16T12:56:04;11.00;;;6.28;;
56401;SDS011;42299;35.160;26.100;2024-02-16T13:01:26;8.32;;;5.07;;
56401;SDS011;42299;35.160;26.100;2024-02-16T13:06:49;8.68;;;4.40;;
56401;SDS011;42299;35.160;26.100;2024-02-16T13:12:14;9.32;;;5.90;;
56401;SDS011;42299;35.160;26.100;2024-02-16T13:17:36;11.52;;;5.00;;
56401;SDS011;42299;35.160;26.100;2024-02-16T13:22:59;8.80;;;4.88;;
56401;SDS011;42299;35.160;26.100;2024-02-16T13:28:23;14.85;;;5.90;;
56401;SDS011;42299;35.160;26.100;2024-02-16T13:33:45;9.07;;;5.47;;
56401;SDS011;42299;35.160;26.100;2024-02-16T13:39:08;7.65;;;5.30;;
56401;SDS011;42299;35.160;26.100;2024-02-16T13:44:32;7.55;;;5.15;;
56401;SDS011;42299;35.160;26.100;2024-02-16T13:49:55;11.63;;;5.93;;
56401;SDS011;42299;35.160;26.100;2024-02-16T13:55:18;10.45;;;4.40;;
56401;SDS011;42299;35.160;26.100;2024-02-16T14:00:42;8.43;;;4.65;;
56401;SDS011;42299;35.160;26.100;2024-02-16T14:06:05;9.32;;;4.80;;
56401;SDS011;42299;35.160;26.100;2024-02-16T14:11:30;10.10;;;5.47;;
56401;SDS011;42299;35.160;26.100;2024-02-16T14:16:54;10.43;;;6.07;;
56401;SDS011;42299;35.160;26.100;2024-02-16T14:22:17;10.68;;;5.80;;
56401;SDS011;42299;35.160;26.100;2024-02-16T14:27:39;11.23;;;6.85;;
56401;SDS011;42299;35.160;26.100;2024-02-16T14:33:04;14.57;;;8.70;;
56401;SDS011;42299;35.160;26.100;2024-02-16T14:38:27;11.02;;;5.30;;
56401;SDS011;42299;35.160;26.100;2024-02-16T14:43:49;7.20;;;5.35;;
56401;SDS011;42299;35.160;26.100;2024-02-16T14:49:13;8.35;;;5.72;;
56401;SDS011;42299;35.160;26.100;2024-02-16T14:54:41;9.15;;;4.68;;
56401;SDS011;42299;35.160;26.100;2024-02-16T15:00:04;8.00;;;5.10;;
56401;SDS011;42299;35.160;26.100;2024-02-16T15:05:28;10.13;;;5.43;;
56401;SDS011;42299;35.160;26.100;2024-02-16T15:10:51;7.57;;;6.32;;
56401;SDS011;42299;35.160;26.100;2024-02-16T15:16:13;11.68;;;5.90;;
56401;SDS011;42299;35.160;26.100;2024-02-16T15:21:37;12.90;;;7.60;;
56401;SDS011;42299;35.160;26.100;2024-02-16T15:27:00;10.70;;;6.00;;
56401;SDS011;42299;35.160;26.100;2024-02-16T15:32:23;11.00;;;8.63;;
56401;SDS011;42299;35.160;26.100;2024-02-16T15:37:48;13.27;;;7.00;;
56401;SDS011;42299;35.160;26.100;2024-02-16T15:43:10;10.55;;;7.18;;
56401;SDS011;42299;35.160;26.100;2024-02-16T15:48:33;10.18;;;6.93;;
56401;SDS011;42299;35.160;26.100;2024-02-16T15:53:56;12.45;;;5.68;;
56401;SDS011;42299;35.160;26.100;2024-02-16T15:59:21;12.43;;;6.38;;
56401;SDS011;42299;35.160;26.100;2024-02-16T16:04:43;19.45;;;13.65;;
56401;SDS011;42299;35.160;26.100;2024-02-16T16:10:08;17.10;;;13.30;;
56401;SDS011;42299;35.160;26.100;2024-02-16T16:15:31;22.38;;;11.15;;
56401;SDS011;42299;35.160;26.100;2024-02-16T16:20:54;16.20;;;12.93;;
56401;SDS011;42299;35.160;26.100;2024-02-16T16:26:18;19.65;;;12.88;;
56401;SDS011;42299;35.160;26.100;2024-02-16T16:31:41;18.10;;;12.95;;
56401;SDS011;42299;35.160;26.100;2024-02-16T16:37:03;20.35;;;15.13;;
56401;SDS011;42299;35.160;26.100;2024-02-16T16:42:27;18.23;;;14.95;;
56401;SDS011;42299;35.160;26.100;2024-02-16T16:47:50;29.50;;;26.40;;
56401;SDS011;42299;35.160;26.100;2024-02-16T16:53:12;20.52;;;12.48;;
56401;SDS011;42299;35.160;26.100;2024-02-16T16:58:36;19.55;;;13.35;;
56401;SDS011;42299;35.160;26.100;2024-02-16T17:03:59;29.48;;;23.00;;
56401;SDS011;42299;35.160;26.100;2024-02-16T17:09:21;22.60;;;17.80;;
56401;SDS011;42299;35.160;26.100;2024-02-16T17:14:45;24.25;;;21.65;;
56401;SDS011;42299;35.160;26.100;2024-02-16T17:20:08;11.73;;;8.80;;
56401;SDS011;42299;35.160;26.100;2024-02-16T17:25:31;17.33;;;12.82;;
56401;SDS011;42299;35.160;26.100;2024-02-16T17:30:55;27.30;;;20.58;;
56401;SDS011;42299;35.160;26.100;2024-02-16T17:36:18;25.40;;;21.38;;
56401;SDS011;42299;35.160;26.100;2024-02-16T17:41:41;23.88;;;18.48;;
56401;SDS011;42299;35.160;26.100;2024-02-16T17:47:05;18.77;;;14.95;;
56401;SDS011;42299;35.160;26.100;2024-02-16T17:52:28;18.00;;;15.82;;
56401;SDS011;42299;35.160;26.100;2024-02-16T17:57:50;18.75;;;12.90;;
56401;SDS011;42299;35.160;26.100;2024-02-16T18:03:14;53.85;;;30.88;;
56401;SDS011;42299;35.160;26.100;2024-02-16T18:08:38;20.73;;;14.13;;
56401;SDS011;42299;35.160;26.100;2024-02-16T18:14:01;19.30;;;16.92;;
56401;SDS011;42299;35.160;26.100;2024-02-16T18:19:25;29.08;;;25.92;;
56401;SDS011;42299;35.160;26.100;2024-02-16T18:24:48;27.30;;;24.13;;
56401;SDS011;42299;35.160;26.100;2024-02-16T18:30:11;18.45;;;16.58;;
56401;SDS011;42299;35.160;26.100;2024-02-16T18:35:36;15.68;;;14.18;;
56401;SDS011;42299;35.160;26.100;2024-02-16T18:40:58;17.90;;;16.02;;
56401;SDS011;42299;35.160;26.100;2024-02-16T18:46:21;26.52;;;23.83;;
56401;SDS011;42299;35.160;26.100;2024-02-16T18:51:45;23.50;;;20.85;;
56401;SDS011;42299;35.160;26.100;2024-02-16T18:57:07;20.63;;;18.50;;
56401;SDS011;42299;35.160;26.100;2024-02-16T19:02:30;16.20;;;13.35;;
56401;SDS011;42299;35.160;26.100;2024-02-16T19:07:54;21.10;;;17.92;;
56401;SDS011;42299;35.160;26.100;2024-02-16T19:13:16;16.27;;;13.43;;
56401;SDS011;42299;35.160;26.100;2024-02-16T19:18:39;20.40;;;16.17;;
56401;SDS011;42299;35.160;26.100;2024-02-16T19:24:03;17.75;;;11.13;;
56401;SDS011;42299;35.160;26.100;2024-02-16T19:29:28;17.48;;;13.07;;
56401;SDS011;42299;35.160;26.100;2024-02-16T19:34:50;16.27;;;11.57;;
56401;SDS011;42299;35.160;26.100;2024-02-16T19:40:15;27.52;;;22.35;;
56401;SDS011;42299;35.160;26.100;2024-02-16T19:45:37;21.02;;;17.25;;
56401;SDS011;42299;35.160;26.100;2024-02-16T19:50:59;19.30;;;14.63;;
56401;SDS011;42299;35.160;26.100;2024-02-16T19:56:23;21.85;;;17.52;;
56401;SDS011;42299;35.160;26.100;2024-02-16T20:01:46;18.15;;;13.70;;
56401;SDS011;42299;35.160;26.100;2024-02-16T20:07:08;19.40;;;14.60;;
56401;SDS011;42299;35.160;26.100;2024-02-16T20:12:32;23.80;;;18.98;;
56401;SDS011;42299;35.160;26.100;2024-02-16T20:17:55;16.10;;;11.00;;
56401;SDS011;42299;35.160;26.100;2024-02-16T20:23:19;21.38;;;13.40;;
56401;SDS011;42299;35.160;26.100;2024-02-16T20:28:44;24.17;;;17.15;;
56401;SDS011;42299;35.160;26.100;2024-02-16T20:34:07;47.05;;;27.08;;
56401;SDS011;42299;35.160;26.100;2024-02-16T20:39:29;26.25;;;17.67;;
56401;SDS011;42299;35.160;26.100;2024-02-16T20:44:56;15.85;;;11.30;;
56401;SDS011;42299;35.160;26.100;2024-02-16T20:50:19;14.55;;;10.88;;
56401;SDS011;42299;35.160;26.100;2024-02-16T20:55:42;30.88;;;20.65;;
56401;SDS011;42299;35.160;26.100;2024-02-16T21:01:06;20.85;;;14.80;;
56401;SDS011;42299;35.160;26.100;2024-02-16T21:06:29;28.88;;;21.40;;
56401;SDS011;42299;35.160;26.100;2024-02-16T21:11:53;30.70;;;19.60;;
56401;SDS011;42299;35.160;26.100;2024-02-16T21:17:18;23.25;;;14.68;;
56401;SDS011;42299;35.160;26.100;2024-02-16T21:22:41;24.38;;;18.00;;
56401;SDS011;42299;35.160;26.100;2024-02-16T21:28:03;30.80;;;19.05;;
56401;SDS011;42299;35.160;26.100;2024-02-16T21:33:28;20.45;;;13.93;;
56401;SDS011;42299;35.160;26.100;2024-02-16T21:38:50;25.73;;;16.42;;
56401;SDS011;42299;35.160;26.100;2024-02-16T21:44:13;20.40;;;12.70;;
56401;SDS011;42299;35.160;26.100;2024-02-16T21:49:37;20.05;;;13.75;;
56401;SDS011;42299;35.160;26.100;2024-02-16T21:55:00;27.98;;;19.20;;
56401;SDS011;42299;35.160;26.100;2024-02-16T22:00:22;29.58;;;17.23;;
56401;SDS011;42299;35.160;26.100;2024-02-16T22:05:46;24.30;;;18.02;;
56401;SDS011;42299;35.160;26.100;2024-02-16T22:11:09;20.55;;;13.57;;
56401;SDS011;42299;35.160;26.100;2024-02-16T22:16:31;16.35;;;12.18;;
56401;SDS011;42299;35.160;26.100;2024-02-16T22:21:56;16.48;;;12.48;;
56401;SDS011;42299;35.160;26.100;2024-02-16T22:27:18;13.57;;;9.82;;
56401;SDS011;42299;35.160;26.100;2024-02-16T22:32:41;17.70;;;10.90;;
56401;SDS011;42299;35.160;26.100;2024-02-16T22:38:05;17.63;;;11.38;;
56401;SDS011;42299;35.160;26.100;2024-02-16T22:43:27;16.73;;;12.68;;
56401;SDS011;42299;35.160;26.100;2024-02-16T22:48:50;15.35;;;9.63;;
56401;SDS011;42299;35.160;26.100;2024-02-16T22:54:13;14.88;;;9.95;;
56401;SDS011;42299;35.160;26.100;2024-02-16T22:59:36;13.02;;;9.57;;
56401;SDS011;42299;35.160;26.100;2024-02-16T23:04:58;15.50;;;9.23;;
56401;SDS011;42299;35.160;26.100;2024-02-16T23:10:22;10.48;;;7.28;;
56401;SDS011;42299;35.160;26.100;2024-02-16T23:15:45;14.85;;;8.63;;
56401;SDS011;42299;35.160;26.100;2024-02-16T23:21:08;11.57;;;8.25;;
56401;SDS011;42299;35.160;26.100;2024-02-16T23:26:31;14.13;;;7.40;;
56401;SDS011;42299;35.160;26.100;2024-02-16T23:31:54;9.20;;;6.68;;
56401;SDS011;42299;35.160;26.100;2024-02-16T23:37:19;10.20;;;7.43;;
56401;SDS011;42299;35.160;26.100;2024-02-16T23:42:44;11.63;;;6.90;;
56401;SDS011;42299;35.160;26.100;2024-02-16T23:48:07;13.07;;;6.97;;
56401;SDS011;42299;35.160;26.100;2024-02-16T23:53:29;13.10;;;6.28;;
56401;SDS011;42299;35.160;26.100;2024-02-16T23:58:53;10.13;;;7.25;;
